Time;durP1;ratioP1;P1;durP2;ratioP2;P2;SDS_P1;SDS_P2;PMS_P1;PMS_P2;Temp;Humidity;BMP_temperature;BMP_pressure;BME280_temperature;BME280_humidity;BME280_pressure;Samples;Min_cycle;Max_cycle;Signal;HPM_P1;HPM_P2
2022/12/11 00:00:39;;;;;;;29.45;22.42;;;-1.00;99.90;;;;;;5035547;28;20220;-76
2022/12/11 00:03:26;;;;;;;30.00;21.85;;;-1.00;99.90;;;;;;5051360;28;20205;-74
2022/12/11 00:06:13;;;;;;;30.77;23.23;;;-0.90;99.90;;;;;;5053071;28;20200;-74
2022/12/11 00:08:59;;;;;;;30.98;24.60;;;-0.80;99.90;;;;;;5041877;28;20324;-75
2022/12/11 00:11:44;;;;;;;27.85;21.38;;;-0.80;99.90;;;;;;5054078;28;20702;-76
2022/12/11 00:14:30;;;;;;;33.50;23.83;;;-0.70;99.90;;;;;;5050191;28;20335;-74
2022/12/11 00:17:16;;;;;;;29.88;21.85;;;-0.50;99.90;;;;;;5049781;28;20217;-74
2022/12/11 00:20:03;;;;;;;30.80;22.75;;;-0.40;99.90;;;;;;5043036;28;20209;-74
2022/12/11 00:22:49;;;;;;;30.92;24.40;;;-0.30;99.90;;;;;;5049377;28;20201;-74
2022/12/11 00:25:34;;;;;;;31.08;22.58;;;-0.30;99.90;;;;;;5050107;28;20516;-74
2022/12/11 00:28:20;;;;;;;31.65;24.02;;;-0.20;99.90;;;;;;5050158;28;20204;-74
2022/12/11 00:31:07;;;;;;;32.45;24.75;;;-0.20;99.90;;;;;;5056008;28;20829;-74
2022/12/11 00:33:52;;;;;;;30.48;23.63;;;-0.20;99.90;;;;;;5053305;28;20208;-74
2022/12/11 00:36:39;;;;;;;32.90;21.95;;;-0.10;99.90;;;;;;5052595;28;20220;-74
2022/12/11 00:39:25;;;;;;;28.95;23.48;;;-0.10;99.90;;;;;;5049372;28;20266;-75
2022/12/11 00:42:11;;;;;;;29.25;21.67;;;0.00;99.90;;;;;;5048885;28;20298;-74
2022/12/11 00:44:56;;;;;;;32.25;22.80;;;0.00;99.90;;;;;;5046464;28;20208;-72
2022/12/11 00:47:42;;;;;;;31.63;24.38;;;0.10;99.90;;;;;;5052429;28;20728;-75
2022/12/11 00:50:28;;;;;;;27.27;20.70;;;0.10;99.90;;;;;;5050915;28;20223;-75
2022/12/11 00:53:15;;;;;;;30.13;22.02;;;0.10;99.90;;;;;;5053899;28;20287;-75
2022/12/11 00:56:00;;;;;;;30.40;21.60;;;0.10;99.90;;;;;;5042447;28;20201;-76
2022/12/11 00:58:47;;;;;;;28.08;22.23;;;0.10;99.90;;;;;;5042904;28;20286;-74
2022/12/11 01:01:32;;;;;;;30.58;21.85;;;0.10;99.90;;;;;;5051542;28;20241;-75
2022/12/11 01:04:17;;;;;;;28.27;21.83;;;0.20;99.90;;;;;;5048910;28;20204;-74
2022/12/11 01:07:03;;;;;;;31.65;24.05;;;0.20;99.90;;;;;;5050825;28;20205;-74
2022/12/11 01:12:55;;;;;;;23.73;19.23;;;0.20;99.90;;;;;;5045649;28;20675;-74
2022/12/11 01:15:43;;;;;;;28.73;20.63;;;0.30;99.90;;;;;;5051581;28;20567;-74
2022/12/11 01:18:29;;;;;;;29.88;21.20;;;0.20;99.90;;;;;;5050339;28;20204;-78
2022/12/11 01:21:14;;;;;;;30.30;21.67;;;0.20;99.90;;;;;;5049060;28;20224;-74
2022/12/11 01:24:00;;;;;;;28.95;20.90;;;0.20;99.90;;;;;;5051388;28;20224;-74
2022/12/11 01:26:47;;;;;;;28.52;22.38;;;0.20;99.90;;;;;;5045519;28;20725;-75
2022/12/11 01:29:32;;;;;;;30.30;21.33;;;0.20;99.90;;;;;;5046494;28;20721;-74
2022/12/11 01:32:18;;;;;;;29.50;22.60;;;0.20;99.90;;;;;;5051247;28;20283;-74
2022/12/11 01:35:04;;;;;;;32.97;21.58;;;0.30;99.90;;;;;;5051792;28;20733;-73
2022/12/11 01:37:50;;;;;;;35.97;24.98;;;0.40;99.90;;;;;;5040815;28;20232;-74
2022/12/11 01:40:35;;;;;;;31.65;23.45;;;0.40;99.90;;;;;;5044496;28;20244;-75
2022/12/11 01:43:22;;;;;;;31.55;20.55;;;0.40;99.90;;;;;;5048867;28;20208;-74
2022/12/11 01:46:07;;;;;;;34.75;24.10;;;0.40;99.90;;;;;;5051461;28;20201;-74
2022/12/11 01:48:54;;;;;;;35.05;26.20;;;0.40;99.90;;;;;;5046397;28;20687;-74
2022/12/11 01:51:44;;;;;;;35.13;24.98;;;0.40;99.90;;;;;;5049306;28;20296;-74
2022/12/11 01:54:30;;;;;;;41.20;26.63;;;0.40;99.90;;;;;;5047617;28;20275;-75
2022/12/11 01:57:16;;;;;;;31.92;24.95;;;0.40;99.90;;;;;;5046828;28;20220;-73
2022/12/11 02:00:05;;;;;;;37.70;28.27;;;0.40;99.90;;;;;;5046489;28;20288;-73
2022/12/11 02:02:50;;;;;;;39.05;24.83;;;0.30;99.90;;;;;;5051969;28;20570;-74
2022/12/11 02:05:36;;;;;;;42.78;25.90;;;0.30;99.90;;;;;;5048869;28;20259;-74
2022/12/11 02:08:22;;;;;;;39.40;27.92;;;0.20;99.90;;;;;;5046507;28;20201;-73
2022/12/11 02:11:14;;;;;;;37.15;26.52;;;0.20;99.90;;;;;;5050486;28;20266;-74
2022/12/11 02:14:05;;;;;;;36.60;24.10;;;0.20;99.90;;;;;;5043330;28;20244;-74
2022/12/11 02:16:58;;;;;;;38.53;24.05;;;0.20;99.90;;;;;;5050902;28;20236;-74
2022/12/11 02:19:57;;;;;;;35.95;25.10;;;0.10;99.90;;;;;;5046414;28;20599;-74
2022/12/11 02:22:58;;;;;;;38.42;27.00;;;0.00;99.90;;;;;;5051152;28;20205;-73
2022/12/11 02:25:55;;;;;;;36.85;24.77;;;-0.10;99.90;;;;;;5050666;28;20209;-74
2022/12/11 02:28:46;;;;;;;34.92;27.40;;;0.00;99.90;;;;;;5044796;28;20213;-73
2022/12/11 02:31:37;;;;;;;38.40;25.90;;;0.10;99.90;;;;;;5046192;28;20228;-73
2022/12/11 02:34:30;;;;;;;35.78;25.65;;;0.10;99.90;;;;;;5051035;28;20255;-73
2022/12/11 02:37:21;;;;;;;39.72;27.13;;;0.00;99.90;;;;;;5044475;28;20229;-73
2022/12/11 02:40:11;;;;;;;35.58;24.67;;;0.00;99.90;;;;;;5047597;28;20205;-73
2022/12/11 02:42:59;;;;;;;36.38;25.85;;;0.10;99.90;;;;;;5051202;28;20201;-73
2022/12/11 02:45:48;;;;;;;41.90;26.02;;;0.20;99.90;;;;;;5035471;28;20200;-73
2022/12/11 02:48:36;;;;;;;36.45;27.23;;;0.30;99.90;;;;;;5040650;28;20316;-73
2022/12/11 02:51:25;;;;;;;33.47;23.55;;;0.30;99.90;;;;;;5050988;28;20330;-73
2022/12/11 02:54:16;;;;;;;36.13;24.33;;;0.40;99.90;;;;;;5047592;28;20556;-73
2022/12/11 02:57:06;;;;;;;42.42;26.10;;;0.50;99.90;;;;;;5044245;28;20220;-73
2022/12/11 02:59:52;;;;;;;38.58;27.92;;;0.60;99.90;;;;;;5043405;28;20213;-74
2022/12/11 03:02:41;;;;;;;39.13;26.33;;;0.60;99.90;;;;;;5050655;28;20328;-73
2022/12/11 03:05:27;;;;;;;39.38;25.90;;;0.70;99.90;;;;;;5050033;28;20205;-73
2022/12/11 03:08:17;;;;;;;36.10;24.02;;;0.70;99.90;;;;;;5043144;28;20369;-73
2022/12/11 03:11:02;;;;;;;36.72;26.00;;;0.70;99.90;;;;;;5047376;28;20228;-74
2022/12/11 03:13:48;;;;;;;34.30;23.52;;;0.70;99.90;;;;;;5050642;28;20197;-73
2022/12/11 03:16:36;;;;;;;37.15;24.55;;;0.60;99.90;;;;;;5039183;28;20213;-73
2022/12/11 03:19:30;;;;;;;34.90;23.63;;;0.70;99.90;;;;;;5036510;28;20209;-73
2022/12/11 03:22:20;;;;;;;36.90;25.73;;;0.70;99.90;;;;;;5049268;28;20302;-74
2022/12/11 03:25:10;;;;;;;38.45;25.75;;;0.80;99.90;;;;;;5046462;28;20205;-73
2022/12/11 03:27:58;;;;;;;35.40;24.35;;;0.80;99.90;;;;;;5045191;28;20196;-73
2022/12/11 03:30:46;;;;;;;36.38;23.33;;;0.90;99.90;;;;;;5054475;28;20240;-74
2022/12/11 03:33:35;;;;;;;33.65;24.63;;;0.90;99.90;;;;;;5046013;28;20217;-73
2022/12/11 03:36:26;;;;;;;35.65;26.13;;;1.00;99.90;;;;;;5050688;28;20201;-73
2022/12/11 03:39:17;;;;;;;43.53;28.25;;;1.00;99.90;;;;;;5050032;28;20197;-73
2022/12/11 03:42:06;;;;;;;39.97;27.70;;;0.90;99.90;;;;;;5041991;28;20554;-73
2022/12/11 03:44:54;;;;;;;45.72;30.10;;;0.90;99.90;;;;;;5046492;28;20331;-73
2022/12/11 03:47:42;;;;;;;46.08;30.65;;;0.80;99.90;;;;;;5049187;28;20275;-74
2022/12/11 03:50:31;;;;;;;51.05;30.67;;;0.80;99.90;;;;;;5047714;28;20705;-74
2022/12/11 03:53:20;;;;;;;41.05;30.15;;;0.70;99.90;;;;;;5052147;28;20204;-74
2022/12/11 03:56:08;;;;;;;41.13;27.67;;;0.70;99.90;;;;;;5046842;28;20205;-73
2022/12/11 03:58:54;;;;;;;49.90;31.35;;;0.90;99.90;;;;;;5053099;28;20590;-74
2022/12/11 04:01:39;;;;;;;51.65;32.13;;;0.90;99.90;;;;;;5054127;28;20230;-74
2022/12/11 04:04:25;;;;;;;53.17;33.30;;;1.00;99.90;;;;;;5050689;28;20944;-73
2022/12/11 04:07:11;;;;;;;46.58;32.45;;;1.00;99.90;;;;;;5048970;28;20202;-73
2022/12/11 04:09:57;;;;;;;44.80;30.27;;;0.90;99.90;;;;;;5047162;28;20670;-74
2022/12/11 04:12:43;;;;;;;52.13;33.85;;;1.00;99.90;;;;;;5053331;28;20769;-73
2022/12/11 04:15:28;;;;;;;52.65;33.65;;;1.00;99.90;;;;;;5048288;28;20570;-76
2022/12/11 04:24:21;;;;;;;50.60;33.78;;;1.10;99.90;;;;;;5049745;28;20251;-73
2022/12/11 04:27:08;;;;;;;46.30;33.35;;;1.00;99.90;;;;;;5047644;28;20196;-74
2022/12/11 04:29:53;;;;;;;48.75;33.45;;;1.00;99.90;;;;;;5043503;28;20686;-73
2022/12/11 04:32:39;;;;;;;49.30;34.80;;;1.00;99.90;;;;;;5047262;28;20264;-74
2022/12/11 04:35:24;;;;;;;51.63;31.42;;;0.90;99.90;;;;;;5040227;28;20248;-73
2022/12/11 04:38:11;;;;;;;56.00;35.20;;;0.90;99.90;;;;;;5044791;28;20213;-73
2022/12/11 04:41:00;;;;;;;50.05;33.40;;;0.90;99.90;;;;;;5036857;28;20224;-73
2022/12/11 04:43:46;;;;;;;48.58;34.58;;;1.00;99.90;;;;;;5053112;28;20200;-73
2022/12/11 04:46:33;;;;;;;48.72;34.92;;;1.10;99.90;;;;;;5047562;28;20201;-73
2022/12/11 04:49:18;;;;;;;51.88;34.15;;;1.00;99.90;;;;;;5053008;28;20193;-74
2022/12/11 04:52:04;;;;;;;50.08;33.47;;;1.00;99.90;;;;;;5047545;28;20220;-73
2022/12/11 04:54:50;;;;;;;51.05;33.40;;;0.90;99.90;;;;;;5043500;28;20197;-73
2022/12/11 04:57:36;;;;;;;44.28;31.17;;;0.90;99.90;;;;;;5047968;28;20237;-73
2022/12/11 05:00:23;;;;;;;53.42;34.80;;;1.00;99.90;;;;;;5050010;28;20225;-73
2022/12/11 05:03:09;;;;;;;49.53;33.00;;;0.90;99.90;;;;;;5052560;28;20270;-74
2022/12/11 05:05:54;;;;;;;45.03;29.10;;;1.00;99.90;;;;;;5046648;28;20204;-73
2022/12/11 05:08:42;;;;;;;46.63;31.15;;;1.00;99.90;;;;;;5055661;28;20579;-74
2022/12/11 05:11:27;;;;;;;42.70;30.42;;;1.10;99.90;;;;;;5051445;28;20263;-74
2022/12/11 05:14:13;;;;;;;47.72;31.20;;;1.10;99.90;;;;;;5051545;28;20200;-73
2022/12/11 05:17:01;;;;;;;45.22;30.20;;;1.10;99.90;;;;;;5050369;28;20208;-73
2022/12/11 05:19:47;;;;;;;48.67;32.40;;;1.10;99.90;;;;;;5062526;28;20295;-74
2022/12/11 05:22:33;;;;;;;44.00;31.35;;;1.10;99.90;;;;;;5050598;28;20200;-74
2022/12/11 05:25:18;;;;;;;48.38;31.92;;;1.10;99.90;;;;;;5051085;28;20213;-74
2022/12/11 05:28:04;;;;;;;48.08;33.22;;;0.80;99.90;;;;;;5047755;28;20291;-74
2022/12/11 05:30:54;;;;;;;45.75;32.65;;;0.80;99.90;;;;;;5049751;28;20729;-73
2022/12/11 05:33:41;;;;;;;46.40;32.60;;;0.70;99.90;;;;;;5049980;28;20320;-73
2022/12/11 05:36:29;;;;;;;46.65;32.50;;;0.50;99.90;;;;;;5045234;28;20204;-73
2022/12/11 05:39:15;;;;;;;44.95;30.80;;;0.50;99.90;;;;;;5048528;28;20581;-74
2022/12/11 05:42:01;;;;;;;43.00;29.90;;;0.50;99.90;;;;;;5050582;28;20224;-73
2022/12/11 05:44:46;;;;;;;43.30;28.58;;;0.60;99.90;;;;;;5051344;28;20565;-73
2022/12/11 05:47:32;;;;;;;44.10;30.30;;;0.60;99.90;;;;;;5055557;28;20280;-73
2022/12/11 05:50:19;;;;;;;44.55;29.92;;;0.70;99.90;;;;;;5054984;28;20275;-74
2022/12/11 05:53:04;;;;;;;39.88;28.73;;;0.80;99.90;;;;;;5044362;28;20269;-74
2022/12/11 05:55:50;;;;;;;39.70;27.52;;;0.90;99.90;;;;;;5046369;28;20225;-74
2022/12/11 05:58:35;;;;;;;44.13;29.13;;;1.00;99.90;;;;;;5050927;28;20228;-74
2022/12/11 06:01:23;;;;;;;43.67;30.10;;;1.00;99.90;;;;;;5051992;28;20232;-74
2022/12/11 06:04:11;;;;;;;43.33;29.02;;;0.90;99.90;;;;;;5046598;28;20732;-73
2022/12/11 06:06:57;;;;;;;46.83;30.00;;;1.00;99.90;;;;;;5042977;28;20659;-74
2022/12/11 06:09:43;;;;;;;47.80;30.80;;;0.90;99.90;;;;;;5051027;28;20197;-73
2022/12/11 06:12:29;;;;;;;43.03;30.58;;;0.90;99.90;;;;;;5048866;28;20367;-73
2022/12/11 06:15:15;;;;;;;46.00;31.15;;;1.00;99.90;;;;;;5048795;28;20324;-73
2022/12/11 06:18:01;;;;;;;46.17;31.90;;;1.00;99.90;;;;;;5048674;28;20220;-73
2022/12/11 06:20:47;;;;;;;52.55;33.28;;;1.00;99.90;;;;;;5047191;28;20345;-73
2022/12/11 06:23:33;;;;;;;55.15;32.83;;;0.90;99.90;;;;;;5041619;28;20200;-73
2022/12/11 06:26:20;;;;;;;47.33;34.22;;;0.90;99.90;;;;;;5043870;28;20275;-74
2022/12/11 06:29:06;;;;;;;46.78;30.20;;;0.90;99.90;;;;;;5041019;28;20194;-73
2022/12/11 06:31:51;;;;;;;46.10;31.70;;;0.90;99.90;;;;;;5043081;28;20247;-73
2022/12/11 06:34:37;;;;;;;51.38;32.95;;;0.80;99.90;;;;;;5043229;28;20231;-73
2022/12/11 06:37:22;;;;;;;48.25;32.70;;;0.70;99.90;;;;;;5055006;28;20690;-74
2022/12/11 06:40:11;;;;;;;43.47;30.38;;;0.60;99.90;;;;;;5046209;28;20279;-73
2022/12/11 06:42:57;;;;;;;40.85;27.83;;;0.50;99.90;;;;;;5042630;28;20283;-74
2022/12/11 06:45:42;;;;;;;43.00;29.63;;;0.60;99.90;;;;;;5043926;28;20204;-73
2022/12/11 06:48:29;;;;;;;47.80;32.38;;;0.40;99.90;;;;;;5047902;28;20212;-73
2022/12/11 06:51:17;;;;;;;41.10;29.75;;;0.30;99.90;;;;;;5042255;28;20721;-73
2022/12/11 06:54:02;;;;;;;64.28;42.72;;;0.40;99.90;;;;;;5049825;28;20200;-73
2022/12/11 06:56:49;;;;;;;50.38;31.00;;;0.30;99.90;;;;;;5046078;28;20216;-73
2022/12/11 06:59:35;;;;;;;60.63;40.05;;;0.30;99.90;;;;;;5042316;28;20270;-73
2022/12/11 07:02:21;;;;;;;55.70;35.92;;;0.10;99.90;;;;;;5050612;28;20294;-73
2022/12/11 07:05:07;;;;;;;54.03;36.15;;;0.20;99.90;;;;;;5038001;28;20245;-73
2022/12/11 07:07:54;;;;;;;54.13;36.25;;;0.20;99.90;;;;;;5050095;28;20722;-73
2022/12/11 07:10:39;;;;;;;58.22;32.85;;;0.40;99.90;;;;;;5049010;28;20220;-74
2022/12/11 07:13:26;;;;;;;51.10;33.00;;;0.50;99.90;;;;;;5042236;28;20234;-73
2022/12/11 07:16:13;;;;;;;56.83;34.67;;;0.60;99.90;;;;;;5050675;28;20207;-73
2022/12/11 07:18:59;;;;;;;58.08;35.50;;;0.80;99.90;;;;;;5047322;28;20220;-73
2022/12/11 07:21:44;;;;;;;52.20;31.63;;;0.80;99.90;;;;;;5050102;28;20283;-73
2022/12/11 07:24:30;;;;;;;54.70;36.90;;;0.80;99.90;;;;;;5048642;28;20200;-73
2022/12/11 07:27:15;;;;;;;68.63;41.17;;;0.80;99.90;;;;;;5050125;28;20295;-73
2022/12/11 07:30:03;;;;;;;53.45;35.30;;;0.50;99.90;;;;;;5039128;28;20213;-73
2022/12/11 07:32:48;;;;;;;55.97;33.85;;;0.70;99.90;;;;;;5044702;28;20612;-73
2022/12/11 07:35:34;;;;;;;54.80;34.20;;;0.30;99.90;;;;;;5045302;28;20283;-73
2022/12/11 07:38:20;;;;;;;54.75;35.40;;;0.30;99.90;;;;;;5043430;28;20371;-74
2022/12/11 07:41:08;;;;;;;53.97;36.10;;;0.40;99.90;;;;;;5045854;28;20224;-73
2022/12/11 07:43:54;;;;;;;53.70;33.25;;;0.60;99.90;;;;;;5049800;28;20224;-74
2022/12/11 07:46:41;;;;;;;51.10;32.40;;;0.80;99.90;;;;;;5044419;28;20287;-73
2022/12/11 07:49:27;;;;;;;52.67;36.53;;;0.90;99.90;;;;;;5047488;28;20579;-73
2022/12/11 07:52:12;;;;;;;49.10;34.33;;;1.00;99.90;;;;;;5045854;28;20232;-73
2022/12/11 07:54:58;;;;;;;51.67;33.17;;;1.10;99.90;;;;;;5043001;28;20225;-74
2022/12/11 07:57:43;;;;;;;48.97;32.55;;;0.90;99.90;;;;;;5042067;28;20216;-74
2022/12/11 08:00:29;;;;;;;48.45;31.58;;;0.90;99.90;;;;;;5044863;28;20540;-73
2022/12/11 08:03:16;;;;;;;51.67;32.45;;;0.90;99.90;;;;;;5042717;28;20212;-73
2022/12/11 08:06:01;;;;;;;47.45;30.38;;;0.90;99.90;;;;;;5044425;28;20465;-73
2022/12/11 08:08:47;;;;;;;48.53;31.27;;;1.00;99.90;;;;;;5041964;28;20682;-74
2022/12/11 08:11:33;;;;;;;51.63;31.98;;;1.00;99.90;;;;;;5044767;28;20219;-73
2022/12/11 08:14:20;;;;;;;51.05;32.88;;;1.10;99.90;;;;;;5045255;28;20339;-74
2022/12/11 08:17:05;;;;;;;47.83;29.73;;;1.20;99.90;;;;;;5052063;28;20255;-73
2022/12/11 08:19:52;;;;;;;50.58;32.00;;;1.20;99.90;;;;;;5045849;28;20235;-73
2022/12/11 08:22:38;;;;;;;45.97;29.83;;;1.20;99.90;;;;;;5051180;28;20208;-73
2022/12/11 08:25:23;;;;;;;50.67;30.88;;;1.20;99.90;;;;;;5050126;28;20204;-74
2022/12/11 08:28:09;;;;;;;43.85;29.90;;;1.20;99.90;;;;;;5050261;28;20613;-73
2022/12/11 08:30:54;;;;;;;42.42;28.95;;;1.40;99.90;;;;;;5050350;28;20701;-74
2022/12/11 08:33:41;;;;;;;43.20;27.88;;;1.50;99.90;;;;;;5050927;28;20895;-75
2022/12/11 08:36:28;;;;;;;48.47;30.55;;;1.50;99.90;;;;;;5050391;28;20283;-74
2022/12/11 08:39:14;;;;;;;46.90;28.63;;;1.50;99.90;;;;;;5049011;28;20247;-72
2022/12/11 08:42:00;;;;;;;43.97;29.98;;;1.50;99.90;;;;;;5049160;28;20216;-74
2022/12/11 08:44:49;;;;;;;40.45;26.83;;;1.30;99.90;;;;;;5046866;28;20291;-74
2022/12/11 08:47:34;;;;;;;42.90;29.65;;;1.20;99.90;;;;;;5051154;28;20205;-73
2022/12/11 08:50:20;;;;;;;49.42;31.95;;;1.10;99.90;;;;;;5052775;28;20221;-74
2022/12/11 08:53:07;;;;;;;46.35;30.85;;;1.20;99.90;;;;;;5053258;28;20197;-74
2022/12/11 08:55:52;;;;;;;44.47;29.98;;;1.10;99.90;;;;;;5046318;28;20210;-74
2022/12/11 08:58:38;;;;;;;45.95;29.40;;;1.00;99.90;;;;;;5050256;28;20352;-74
2022/12/11 09:01:25;;;;;;;42.70;29.27;;;1.00;99.90;;;;;;5047689;28;20378;-74
2022/12/11 09:04:11;;;;;;;47.03;31.73;;;0.90;99.90;;;;;;5046623;28;20229;-74
2022/12/11 09:06:57;;;;;;;53.47;32.05;;;0.90;99.90;;;;;;5050109;28;20311;-74
2022/12/11 09:09:46;;;;;;;55.90;36.33;;;0.90;99.90;;;;;;5052958;28;20201;-73
2022/12/11 09:12:32;;;;;;;59.95;34.58;;;0.70;99.90;;;;;;5049045;28;20267;-73
2022/12/11 09:15:18;;;;;;;65.10;39.88;;;0.60;99.90;;;;;;5049665;28;20279;-74
2022/12/11 09:18:04;;;;;;;59.25;39.33;;;0.60;99.90;;;;;;5050358;28;20220;-74
2022/12/11 09:20:58;;;;;;;56.60;35.83;;;0.60;99.90;;;;;;5051817;28;20216;-75
2022/12/11 09:23:44;;;;;;;60.75;38.88;;;0.60;99.90;;;;;;5046815;28;20314;-74
2022/12/11 09:26:31;;;;;;;63.85;38.28;;;0.70;99.90;;;;;;5050313;28;20561;-73
2022/12/11 09:29:16;;;;;;;66.45;40.53;;;0.60;99.90;;;;;;5052237;28;20332;-74
2022/12/11 09:32:02;;;;;;;61.63;37.35;;;0.50;99.90;;;;;;5042719;28;20630;-75
2022/12/11 09:34:50;;;;;;;61.30;37.72;;;0.60;99.90;;;;;;5054231;28;20251;-73
2022/12/11 09:37:36;;;;;;;53.90;35.72;;;0.70;99.90;;;;;;5050985;28;20289;-74
2022/12/11 09:40:21;;;;;;;63.28;39.13;;;0.80;99.90;;;;;;5040477;28;20228;-74
2022/12/11 09:43:18;;;;;;;56.72;34.33;;;0.90;99.90;;;;;;5046471;28;20212;-74
2022/12/11 09:46:06;;;;;;;61.03;35.45;;;1.00;99.90;;;;;;5051032;28;20200;-74
2022/12/11 09:48:53;;;;;;;52.90;34.55;;;1.00;99.90;;;;;;5043005;28;20200;-74
2022/12/11 09:51:43;;;;;;;54.38;33.72;;;1.10;99.90;;;;;;5050364;28;20248;-75
2022/12/11 09:54:29;;;;;;;63.63;39.35;;;1.10;99.90;;;;;;5045911;28;20196;-74
2022/12/11 09:57:27;;;;;;;58.25;35.67;;;1.20;99.90;;;;;;5047989;28;20197;-74
2022/12/11 10:00:24;;;;;;;67.03;37.40;;;1.00;99.90;;;;;;5045195;28;20225;-73
2022/12/11 10:03:51;;;;;;;62.85;35.88;;;1.00;99.90;;;;;;5040759;28;20569;-74
2022/12/11 10:06:43;;;;;;;60.47;34.83;;;0.90;99.90;;;;;;5050607;28;20263;-73
2022/12/11 10:09:36;;;;;;;64.22;37.05;;;1.00;99.90;;;;;;5051335;28;20192;-73
2022/12/11 10:12:37;;;;;;;63.83;36.38;;;1.00;99.90;;;;;;5050009;28;20671;-77
2022/12/11 10:15:37;;;;;;;60.72;35.65;;;1.10;99.90;;;;;;5050236;28;20320;-74
2022/12/11 10:18:25;;;;;;;61.35;35.75;;;1.20;99.90;;;;;;5051421;28;20243;-74
2022/12/11 10:21:12;;;;;;;65.60;36.22;;;1.30;99.90;;;;;;5048698;28;20216;-74
2022/12/11 10:24:01;;;;;;;70.82;36.75;;;1.10;99.90;;;;;;5040450;28;20200;-74
2022/12/11 10:26:47;;;;;;;55.85;35.17;;;1.10;99.90;;;;;;5051067;28;20240;-74
2022/12/11 10:29:33;;;;;;;62.25;34.63;;;1.10;99.90;;;;;;5047705;28;20201;-74
2022/12/11 10:32:25;;;;;;;57.78;33.75;;;1.20;99.90;;;;;;5050191;28;20588;-74
2022/12/11 10:35:19;;;;;;;60.70;32.97;;;1.30;99.90;;;;;;5044698;28;20204;-75
2022/12/11 10:38:17;;;;;;;65.90;36.35;;;1.40;99.90;;;;;;5044616;28;20204;-73
2022/12/11 10:41:05;;;;;;;66.03;35.58;;;1.40;99.90;;;;;;5042127;28;20441;-75
2022/12/11 10:43:53;;;;;;;70.63;37.47;;;1.20;99.90;;;;;;5044594;28;20227;-73
2022/12/11 10:46:39;;;;;;;64.53;34.45;;;1.10;99.90;;;;;;5050455;28;20205;-75
2022/12/11 10:49:28;;;;;;;66.25;35.35;;;1.10;99.90;;;;;;5045529;28;20571;-73
2022/12/11 10:52:21;;;;;;;70.00;34.20;;;1.20;99.90;;;;;;5035598;28;20292;-74
2022/12/11 10:55:17;;;;;;;63.55;34.78;;;1.20;99.90;;;;;;5047732;28;20749;-74
2022/12/11 10:58:05;;;;;;;61.63;35.20;;;1.30;99.90;;;;;;5050598;28;20201;-74
2022/12/11 11:01:05;;;;;;;61.13;34.15;;;1.30;99.90;;;;;;5048711;28;20217;-73
2022/12/11 11:04:02;;;;;;;61.58;34.28;;;1.40;99.90;;;;;;5045363;28;20315;-75
2022/12/11 11:06:50;;;;;;;69.03;36.72;;;1.40;99.90;;;;;;5054286;28;20205;-75
2022/12/11 11:09:36;;;;;;;63.40;36.40;;;1.50;99.90;;;;;;5048957;28;20761;-75
2022/12/11 11:12:25;;;;;;;64.57;35.35;;;1.60;99.90;;;;;;5046920;28;20696;-77
2022/12/11 11:15:16;;;;;;;64.25;33.90;;;1.70;99.90;;;;;;5051308;28;20336;-74
2022/12/11 11:18:13;;;;;;;62.92;34.17;;;1.80;99.90;;;;;;5048040;28;20289;-75
2022/12/11 11:21:01;;;;;;;55.83;32.42;;;1.80;99.90;;;;;;5049274;28;20391;-73
2022/12/11 11:23:49;;;;;;;54.08;32.53;;;1.70;99.90;;;;;;5044190;28;20677;-74
2022/12/11 11:26:36;;;;;;;56.33;31.25;;;1.80;99.90;;;;;;5050257;28;20610;-74
2022/12/11 11:29:28;;;;;;;55.53;31.98;;;1.90;99.90;;;;;;5047219;28;20197;-74
2022/12/11 11:32:20;;;;;;;60.83;32.03;;;2.00;99.90;;;;;;5047598;28;20658;-78
2022/12/11 11:35:17;;;;;;;53.25;30.33;;;1.80;99.90;;;;;;5057797;28;20270;-74
2022/12/11 11:38:17;;;;;;;56.35;33.28;;;1.50;99.90;;;;;;5044682;28;20209;-74
2022/12/11 11:41:20;;;;;;;58.10;33.97;;;1.50;99.90;;;;;;5045211;28;20221;-74
2022/12/11 11:44:10;;;;;;;55.22;30.80;;;1.50;99.90;;;;;;5046641;28;20618;-73
2022/12/11 11:47:03;;;;;;;55.38;30.40;;;1.50;99.90;;;;;;5051579;28;20248;-75
2022/12/11 11:50:04;;;;;;;58.72;32.80;;;1.70;99.90;;;;;;5043415;28;20251;-74
2022/12/11 11:52:55;;;;;;;60.17;33.75;;;1.80;99.90;;;;;;5040421;28;20236;-74
2022/12/11 11:55:52;;;;;;;62.00;34.30;;;1.90;99.90;;;;;;5052622;28;20275;-75
2022/12/11 11:58:55;;;;;;;87.68;42.15;;;2.00;99.90;;;;;;5051567;28;20689;-74
2022/12/11 12:01:41;;;;;;;66.65;34.55;;;2.10;99.90;;;;;;5037847;28;20232;-74
2022/12/11 12:04:33;;;;;;;52.63;30.73;;;2.30;99.90;;;;;;5052616;28;20200;-74
2022/12/11 12:07:31;;;;;;;57.83;32.75;;;2.30;99.90;;;;;;5050591;28;20208;-74
2022/12/11 12:10:26;;;;;;;54.78;31.48;;;2.00;99.90;;;;;;5053227;28;20259;-75
2022/12/11 12:13:25;;;;;;;62.67;35.17;;;1.70;99.90;;;;;;5047572;28;20220;-73
2022/12/11 12:16:21;;;;;;;57.45;33.55;;;1.90;99.90;;;;;;5049648;28;20201;-74
2022/12/11 12:19:20;;;;;;;48.85;29.77;;;2.00;99.90;;;;;;5048315;28;20256;-74
2022/12/11 12:22:21;;;;;;;242.02;89.38;;;1.90;99.90;;;;;;5040671;28;20221;-75
2022/12/11 12:25:18;;;;;;;174.60;64.32;;;2.00;99.90;;;;;;5052637;28;20268;-74
2022/12/11 12:28:21;;;;;;;139.02;57.33;;;2.10;99.90;;;;;;5048055;28;20208;-74
2022/12/11 12:31:24;;;;;;;65.22;33.90;;;2.20;99.90;;;;;;5050449;28;20220;-74
2022/12/11 12:34:22;;;;;;;69.80;34.10;;;2.30;99.90;;;;;;5056576;28;20205;-74
2022/12/11 12:37:17;;;;;;;232.75;80.40;;;2.30;99.90;;;;;;5050878;28;20200;-74
2022/12/11 12:40:19;;;;;;;97.95;44.33;;;2.20;99.90;;;;;;5047788;28;20217;-73
2022/12/11 12:43:16;;;;;;;139.93;59.20;;;2.20;99.90;;;;;;5044422;28;20211;-74
2022/12/11 12:46:13;;;;;;;90.05;43.22;;;2.20;99.90;;;;;;5048295;28;20200;-74
2022/12/11 12:49:06;;;;;;;60.92;31.77;;;2.20;99.90;;;;;;5050860;28;20273;-74
2022/12/11 12:52:04;;;;;;;54.17;29.45;;;2.30;99.90;;;;;;5041931;28;20220;-74
2022/12/11 12:58:04;;;;;;;58.25;36.53;;;2.20;99.90;;;;;;5046483;28;20725;-73
2022/12/11 13:01:08;;;;;;;56.17;34.58;;;2.20;99.90;;;;;;5048472;28;20224;-73
2022/12/11 13:04:02;;;;;;;53.15;34.83;;;2.20;99.90;;;;;;5046609;28;20281;-73
2022/12/11 13:06:54;;;;;;;55.13;31.42;;;2.20;99.90;;;;;;5052932;28;20719;-74
2022/12/11 13:09:43;;;;;;;54.70;30.98;;;2.20;99.90;;;;;;5051691;28;20209;-73
2022/12/11 13:12:45;;;;;;;56.97;32.50;;;2.20;99.90;;;;;;5050479;28;20196;-74
2022/12/11 13:15:39;;;;;;;50.60;29.05;;;2.10;99.90;;;;;;5051522;28;20311;-73
2022/12/11 13:18:37;;;;;;;55.15;31.33;;;2.10;99.90;;;;;;5049459;28;20569;-73
2022/12/11 13:21:30;;;;;;;53.05;29.38;;;2.00;99.90;;;;;;5048600;28;20372;-75
2022/12/11 13:24:26;;;;;;;46.13;29.42;;;2.10;99.90;;;;;;5052426;28;20212;-74
2022/12/11 13:27:24;;;;;;;47.10;27.70;;;2.20;99.90;;;;;;5048020;28;20204;-74
2022/12/11 13:30:27;;;;;;;47.08;27.67;;;2.30;99.90;;;;;;5047247;28;20766;-73
2022/12/11 13:33:18;;;;;;;53.13;25.50;;;2.40;99.90;;;;;;5048267;28;20672;-73
2022/12/11 13:36:30;;;;;;;39.67;20.88;;;2.50;99.90;;;;;;5051753;28;20566;-73
2022/12/11 13:39:20;;;;;;;42.72;22.48;;;2.50;99.90;;;;;;5042470;28;20208;-73
2022/12/11 13:42:23;;;;;;;40.72;24.50;;;2.40;99.90;;;;;;5040524;28;20382;-73
2022/12/11 13:45:19;;;;;;;39.38;24.50;;;2.50;99.90;;;;;;5046558;28;20208;-74
2022/12/11 13:48:13;;;;;;;34.55;20.42;;;2.40;99.90;;;;;;5046459;28;20216;-75
2022/12/11 13:51:00;;;;;;;34.40;21.35;;;2.30;99.90;;;;;;5041416;28;20280;-77
2022/12/11 13:53:45;;;;;;;40.65;24.40;;;2.30;99.90;;;;;;5048191;28;20216;-75
2022/12/11 13:56:33;;;;;;;42.35;24.88;;;2.20;99.90;;;;;;5047103;28;20320;-75
2022/12/11 13:59:24;;;;;;;38.40;22.35;;;2.20;99.90;;;;;;5048082;28;20340;-74
2022/12/11 14:02:17;;;;;;;43.15;24.40;;;2.30;99.90;;;;;;5037620;28;20738;-74
2022/12/11 14:05:07;;;;;;;37.20;23.58;;;2.20;99.90;;;;;;5045557;28;20200;-74
2022/12/11 14:07:56;;;;;;;40.03;24.40;;;2.30;99.90;;;;;;5043739;28;20193;-73
2022/12/11 14:10:42;;;;;;;36.13;21.02;;;2.20;99.90;;;;;;5045701;28;20217;-76
2022/12/11 14:13:33;;;;;;;41.55;21.77;;;2.20;99.90;;;;;;5047531;28;20204;-75
2022/12/11 14:16:22;;;;;;;37.53;24.15;;;2.20;99.90;;;;;;5047850;28;20583;-74
2022/12/11 14:19:09;;;;;;;42.40;25.42;;;2.30;99.90;;;;;;5050002;28;20734;-73
2022/12/11 14:22:01;;;;;;;45.03;26.83;;;2.30;99.90;;;;;;5044626;28;20233;-74
2022/12/11 14:24:51;;;;;;;41.95;25.27;;;2.40;99.90;;;;;;5050861;28;20201;-74
2022/12/11 14:27:36;;;;;;;38.92;22.05;;;2.40;99.90;;;;;;5051130;28;20741;-74
2022/12/11 14:30:25;;;;;;;44.85;24.65;;;2.40;99.90;;;;;;5041913;28;20237;-76
2022/12/11 14:33:11;;;;;;;42.30;24.55;;;2.50;99.90;;;;;;5046375;28;20201;-73
2022/12/11 14:35:57;;;;;;;41.83;24.45;;;2.40;99.90;;;;;;5043813;28;20200;-73
2022/12/11 14:38:46;;;;;;;39.58;23.98;;;2.30;99.90;;;;;;5051290;28;20216;-73